Time;durP1;ratioP1;P1;durP2;ratioP2;P2;SDS_P1;SDS_P2;PMS_P1;PMS_P2;Temp;Humidity;BMP_temperature;BMP_pressure;BME280_temperature;BME280_humidity;BME280_pressure;Samples;Min_cycle;Max_cycle;Signal;HPM_P1;HPM_P2
2022/07/04 00:00:59;;;;;;;0.00;0.00;;;;;;;;;;5080050;28;20088;-60
2022/07/04 00:03:25;;;;;;;0.00;0.00;;;;;;;;;;5092682;28;20172;-60
2022/07/04 00:05:52;;;;;;;0.00;0.00;;;;;;;;;;5084675;28;20055;-60
2022/07/04 00:08:18;;;;;;;0.00;0.00;;;;;;;;;;5091628;27;20053;-61
2022/07/04 00:10:45;;;;;;;0.00;0.00;;;;;;;;;;5087814;28;20514;-60
2022/07/04 00:13:11;;;;;;;0.00;0.00;;;;;;;;;;5089260;28;20052;-60
2022/07/04 00:15:38;;;;;;;0.00;0.00;;;;;;;;;;5076888;28;20052;-60
2022/07/04 00:18:04;;;;;;;0.00;0.00;;;;;;;;;;5078041;28;20087;-60
2022/07/04 00:20:30;;;;;;;0.00;0.00;;;;;;;;;;5084676;28;20092;-60
2022/07/04 00:22:57;;;;;;;0.00;0.00;;;;;;;;;;5084462;28;20102;-60
2022/07/04 00:25:23;;;;;;;0.00;0.00;;;;;;;;;;5085972;28;20049;-60
2022/07/04 00:27:49;;;;;;;0.00;0.00;;;;;;;;;;5085820;28;20142;-60
2022/07/04 00:30:17;;;;;;;0.00;0.00;;;;;;;;;;5088183;27;20084;-60
2022/07/04 00:32:43;;;;;;;0.00;0.00;;;;;;;;;;5084733;28;20129;-60
2022/07/04 00:35:09;;;;;;;0.00;0.00;;;;;;;;;;5091347;28;20079;-60
2022/07/04 00:37:36;;;;;;;0.00;0.00;;;;;;;;;;5085779;28;20057;-60
2022/07/04 00:40:02;;;;;;;0.00;0.00;;;;;;;;;;5088101;27;20511;-60
2022/07/04 00:42:29;;;;;;;0.00;0.00;;;;;;;;;;5089989;28;20044;-60
2022/07/04 00:44:55;;;;;;;0.00;0.00;;;;;;;;;;5080914;28;20061;-60
2022/07/04 00:47:21;;;;;;;0.00;0.00;;;;;;;;;;5082333;28;20084;-60
2022/07/04 00:49:48;;;;;;;0.00;0.00;;;;;;;;;;5091295;28;20060;-60
2022/07/04 00:52:14;;;;;;;0.00;0.00;;;;;;;;;;5088862;28;20090;-60
2022/07/04 00:54:41;;;;;;;0.00;0.00;;;;;;;;;;5088027;28;20060;-60
2022/07/04 00:57:07;;;;;;;0.20;0.00;;;;;;;;;;5085466;28;20516;-60
2022/07/04 00:59:34;;;;;;;0.32;0.25;;;;;;;;;;5086861;28;20081;-60
2022/07/04 01:02:00;;;;;;;0.00;0.00;;;;;;;;;;5096401;27;20122;-60
2022/07/04 01:04:27;;;;;;;0.00;0.00;;;;;;;;;;5086786;28;20091;-60
2022/07/04 01:06:53;;;;;;;0.00;0.00;;;;;;;;;;5089471;28;20503;-60
2022/07/04 01:09:20;;;;;;;0.00;0.00;;;;;;;;;;5091077;28;20142;-60
2022/07/04 01:11:48;;;;;;;0.00;0.00;;;;;;;;;;5089648;28;20107;-60
2022/07/04 01:14:14;;;;;;;0.00;0.00;;;;;;;;;;5083742;28;20053;-60
2022/07/04 01:16:41;;;;;;;0.00;0.00;;;;;;;;;;5083085;28;20057;-60
2022/07/04 01:19:07;;;;;;;0.00;0.00;;;;;;;;;;5078463;28;20053;-60
2022/07/04 01:21:34;;;;;;;0.00;0.00;;;;;;;;;;5089974;28;20092;-60
2022/07/04 01:24:00;;;;;;;0.00;0.00;;;;;;;;;;5089326;28;20138;-60
2022/07/04 01:26:30;;;;;;;0.00;0.00;;;;;;;;;;5091335;28;20547;-60
2022/07/04 01:28:56;;;;;;;0.00;0.00;;;;;;;;;;5090909;27;20056;-60
2022/07/04 01:31:23;;;;;;;0.00;0.00;;;;;;;;;;5098137;28;20087;-60
2022/07/04 01:33:49;;;;;;;0.00;0.00;;;;;;;;;;5099947;28;20087;-60
2022/07/04 01:36:15;;;;;;;0.00;0.00;;;;;;;;;;5093537;27;20044;-60
2022/07/04 01:38:42;;;;;;;0.00;0.00;;;;;;;;;;5094236;28;20072;-60
2022/07/04 01:41:08;;;;;;;0.00;0.00;;;;;;;;;;5092580;28;20600;-60
2022/07/04 01:43:35;;;;;;;0.00;0.00;;;;;;;;;;5093198;28;20142;-60
2022/07/04 01:46:01;;;;;;;0.00;0.00;;;;;;;;;;5077775;28;20119;-60
2022/07/04 01:48:28;;;;;;;0.00;0.00;;;;;;;;;;5081669;28;20159;-60
2022/07/04 01:50:54;;;;;;;0.00;0.00;;;;;;;;;;5093786;28;20141;-60
2022/07/04 01:53:20;;;;;;;0.10;0.00;;;;;;;;;;5099050;28;20527;-60
2022/07/04 01:55:47;;;;;;;0.00;0.00;;;;;;;;;;5090194;28;20558;-60
2022/07/04 01:58:13;;;;;;;0.00;0.00;;;;;;;;;;5098207;27;20526;-60
2022/07/04 02:03:24;;;;;;;0.00;0.00;;;;;;;;;;5092092;28;20072;-60
2022/07/04 02:05:51;;;;;;;0.00;0.00;;;;;;;;;;5093776;28;20083;-60
2022/07/04 02:08:17;;;;;;;0.00;0.00;;;;;;;;;;5090515;28;20102;-60
2022/07/04 02:10:45;;;;;;;0.00;0.00;;;;;;;;;;5089585;28;20048;-60
2022/07/04 02:13:11;;;;;;;0.00;0.00;;;;;;;;;;5086817;28;20526;-60
2022/07/04 02:15:38;;;;;;;0.00;0.00;;;;;;;;;;5080790;28;20145;-60
2022/07/04 02:18:06;;;;;;;0.00;0.00;;;;;;;;;;5086681;28;20049;-60
2022/07/04 02:20:32;;;;;;;0.00;0.00;;;;;;;;;;5089196;28;20725;-60
2022/07/04 02:22:59;;;;;;;0.00;0.00;;;;;;;;;;5089240;28;20138;-60
2022/07/04 02:25:25;;;;;;;0.00;0.00;;;;;;;;;;5080618;28;20052;-60
2022/07/04 02:27:52;;;;;;;0.00;0.00;;;;;;;;;;5083617;28;20126;-60
2022/07/04 02:30:18;;;;;;;0.00;0.00;;;;;;;;;;5101975;27;20117;-60
2022/07/04 02:32:44;;;;;;;0.00;0.00;;;;;;;;;;5088871;28;20084;-60
2022/07/04 02:35:11;;;;;;;0.00;0.00;;;;;;;;;;5086465;28;20111;-60
2022/07/04 02:37:37;;;;;;;0.00;0.00;;;;;;;;;;5091683;28;20083;-60
2022/07/04 02:40:04;;;;;;;0.00;0.00;;;;;;;;;;5089441;28;20158;-60
2022/07/04 02:42:34;;;;;;;0.00;0.00;;;;;;;;;;5087904;28;20052;-60
2022/07/04 02:45:00;;;;;;;0.00;0.00;;;;;;;;;;5086970;28;20566;-60
2022/07/04 02:47:26;;;;;;;0.25;0.10;;;;;;;;;;5088509;28;20581;-60
2022/07/04 02:49:53;;;;;;;0.00;0.00;;;;;;;;;;5082604;28;20585;-60
2022/07/04 02:52:19;;;;;;;0.00;0.00;;;;;;;;;;5084922;28;20553;-60
2022/07/04 02:54:46;;;;;;;0.00;0.00;;;;;;;;;;5080674;28;20784;-60
2022/07/04 02:57:13;;;;;;;0.00;0.00;;;;;;;;;;5099049;28;20052;-60
2022/07/04 02:59:40;;;;;;;0.00;0.00;;;;;;;;;;5092983;28;20237;-60
2022/07/04 03:02:06;;;;;;;0.00;0.00;;;;;;;;;;5091627;28;20560;-60
2022/07/04 03:04:33;;;;;;;0.00;0.00;;;;;;;;;;5087697;27;20103;-60
2022/07/04 03:06:59;;;;;;;0.00;0.00;;;;;;;;;;5093147;28;20882;-60
2022/07/04 03:09:28;;;;;;;0.00;0.00;;;;;;;;;;5086674;28;20099;-60
2022/07/04 03:11:55;;;;;;;0.00;0.00;;;;;;;;;;5087497;28;20106;-60
2022/07/04 03:14:21;;;;;;;0.00;0.00;;;;;;;;;;5087372;28;20056;-60
2022/07/04 03:16:48;;;;;;;0.00;0.00;;;;;;;;;;5083899;28;20107;-60
2022/07/04 03:19:17;;;;;;;0.00;0.00;;;;;;;;;;5087435;28;20053;-60
2022/07/04 03:21:43;;;;;;;0.00;0.00;;;;;;;;;;5091470;28;20503;-60
2022/07/04 03:24:10;;;;;;;0.00;0.00;;;;;;;;;;5082178;28;20053;-60
2022/07/04 03:26:36;;;;;;;0.00;0.00;;;;;;;;;;5093277;28;20067;-60
2022/07/04 03:29:03;;;;;;;0.00;0.00;;;;;;;;;;5095764;28;20048;-60
2022/07/04 03:31:29;;;;;;;0.00;0.00;;;;;;;;;;5088693;28;20579;-60
2022/07/04 03:33:55;;;;;;;0.00;0.00;;;;;;;;;;5085457;27;20049;-60
2022/07/04 03:36:22;;;;;;;0.00;0.00;;;;;;;;;;5091639;28;20080;-60
2022/07/04 03:38:48;;;;;;;0.00;0.00;;;;;;;;;;5090939;28;20616;-60
2022/07/04 03:41:15;;;;;;;0.00;0.00;;;;;;;;;;5084797;28;20114;-60
2022/07/04 03:43:41;;;;;;;0.00;0.00;;;;;;;;;;5087026;28;20074;-60
2022/07/04 03:46:08;;;;;;;0.00;0.00;;;;;;;;;;5089380;28;20075;-60
2022/07/04 03:48:34;;;;;;;0.03;0.00;;;;;;;;;;5090535;28;20922;-60
2022/07/04 03:51:00;;;;;;;0.00;0.00;;;;;;;;;;5086142;28;20933;-60
2022/07/04 03:53:27;;;;;;;0.00;0.00;;;;;;;;;;5086368;28;20057;-60
2022/07/04 03:55:53;;;;;;;0.00;0.00;;;;;;;;;;5094158;27;20087;-60
2022/07/04 03:58:19;;;;;;;0.00;0.00;;;;;;;;;;5094129;27;20060;-60
2022/07/04 04:00:46;;;;;;;0.00;0.00;;;;;;;;;;5093183;28;20118;-60
2022/07/04 04:06:08;;;;;;;0.00;0.00;;;;;;;;;;5067461;28;20092;-60
2022/07/04 04:08:34;;;;;;;0.00;0.00;;;;;;;;;;5086133;28;20056;-60
2022/07/04 04:11:00;;;;;;;0.00;0.00;;;;;;;;;;5082702;28;20057;-60
2022/07/04 04:13:27;;;;;;;0.00;0.00;;;;;;;;;;5082540;28;20053;-60
2022/07/04 04:15:53;;;;;;;0.20;0.20;;;;;;;;;;5093847;27;20109;-60
2022/07/04 04:18:19;;;;;;;0.00;0.00;;;;;;;;;;5088258;28;20588;-60
2022/07/04 04:20:46;;;;;;;0.00;0.00;;;;;;;;;;5086760;28;20076;-60
2022/07/04 04:23:13;;;;;;;0.00;0.00;;;;;;;;;;5095074;28;20122;-60
2022/07/04 04:25:39;;;;;;;0.00;0.00;;;;;;;;;;5092663;28;20154;-60
2022/07/04 04:28:06;;;;;;;0.00;0.00;;;;;;;;;;5095150;27;20443;-60
2022/07/04 04:30:33;;;;;;;0.00;0.00;;;;;;;;;;5088250;28;20053;-60
2022/07/04 04:32:59;;;;;;;0.00;0.00;;;;;;;;;;5091675;28;20106;-60
2022/07/04 04:35:26;;;;;;;0.00;0.00;;;;;;;;;;5089739;28;20596;-60
2022/07/04 04:37:52;;;;;;;0.00;0.00;;;;;;;;;;5085911;28;20075;-60
2022/07/04 04:40:19;;;;;;;0.00;0.00;;;;;;;;;;5078734;28;20088;-60
2022/07/04 04:42:45;;;;;;;0.00;0.00;;;;;;;;;;5087232;28;20072;-60
2022/07/04 04:45:11;;;;;;;0.30;0.30;;;;;;;;;;5087053;28;20080;-60
2022/07/04 04:47:38;;;;;;;0.00;0.00;;;;;;;;;;5088986;28;20068;-60
2022/07/04 04:50:04;;;;;;;0.00;0.00;;;;;;;;;;5083422;28;20885;-60
2022/07/04 04:52:31;;;;;;;0.00;0.00;;;;;;;;;;5089297;27;20134;-60
2022/07/04 04:54:57;;;;;;;0.00;0.00;;;;;;;;;;5094031;28;20600;-60
2022/07/04 04:57:23;;;;;;;0.00;0.00;;;;;;;;;;5086404;28;20080;-60
2022/07/04 04:59:50;;;;;;;0.00;0.00;;;;;;;;;;5083381;27;20133;-60
2022/07/04 05:02:20;;;;;;;0.00;0.00;;;;;;;;;;5092919;27;20059;-60
2022/07/04 05:04:47;;;;;;;0.00;0.00;;;;;;;;;;5085712;28;20560;-60
2022/07/04 05:07:13;;;;;;;0.00;0.00;;;;;;;;;;5090844;28;21126;-60
2022/07/04 05:09:40;;;;;;;0.00;0.00;;;;;;;;;;5090370;28;20110;-60
2022/07/04 05:12:06;;;;;;;0.00;0.00;;;;;;;;;;5095242;28;20128;-60
2022/07/04 05:14:33;;;;;;;0.00;0.00;;;;;;;;;;5093002;28;20053;-60
2022/07/04 05:16:59;;;;;;;0.00;0.00;;;;;;;;;;5090732;28;20056;-60
2022/07/04 05:19:26;;;;;;;0.00;0.00;;;;;;;;;;5087105;28;20103;-60
2022/07/04 05:21:52;;;;;;;0.00;0.00;;;;;;;;;;5080806;28;20122;-60
2022/07/04 05:24:19;;;;;;;0.05;0.05;;;;;;;;;;5086579;28;20138;-60
2022/07/04 05:26:45;;;;;;;0.00;0.00;;;;;;;;;;5093700;28;20057;-60
2022/07/04 05:29:12;;;;;;;0.00;0.00;;;;;;;;;;5086420;28;20057;-60
2022/07/04 05:31:38;;;;;;;0.00;0.00;;;;;;;;;;5091424;28;20530;-60
2022/07/04 05:34:05;;;;;;;0.00;0.00;;;;;;;;;;5089374;27;20056;-60
2022/07/04 05:36:31;;;;;;;0.00;0.00;;;;;;;;;;5087431;28;20084;-60
2022/07/04 05:38:57;;;;;;;0.00;0.00;;;;;;;;;;5081572;28;20945;-60
2022/07/04 05:41:24;;;;;;;0.00;0.00;;;;;;;;;;5084823;28;20114;-60
2022/07/04 05:43:51;;;;;;;0.00;0.00;;;;;;;;;;5088454;28;20612;-60
2022/07/04 05:46:23;;;;;;;0.00;0.00;;;;;;;;;;5090966;28;20109;-60
2022/07/04 05:48:49;;;;;;;0.00;0.00;;;;;;;;;;5090484;28;20084;-60
2022/07/04 05:51:16;;;;;;;0.00;0.00;;;;;;;;;;5079706;28;20080;-59
2022/07/04 05:53:42;;;;;;;0.00;0.00;;;;;;;;;;5096395;28;20600;-60
2022/07/04 05:56:09;;;;;;;0.00;0.00;;;;;;;;;;5085123;28;20850;-60
2022/07/04 05:58:35;;;;;;;0.00;0.00;;;;;;;;;;5088635;28;20518;-61
2022/07/04 06:01:01;;;;;;;0.00;0.00;;;;;;;;;;5091515;28;20506;-62
2022/07/04 06:03:28;;;;;;;0.03;0.00;;;;;;;;;;5093769;28;20500;-61
2022/07/04 06:05:55;;;;;;;0.00;0.00;;;;;;;;;;5081764;28;20049;-63
2022/07/04 06:08:21;;;;;;;0.00;0.00;;;;;;;;;;5089119;28;20613;-62
2022/07/04 06:10:48;;;;;;;0.00;0.00;;;;;;;;;;5089953;28;20864;-62
2022/07/04 06:13:14;;;;;;;0.00;0.00;;;;;;;;;;5082564;28;20084;-61
2022/07/04 06:15:40;;;;;;;0.00;0.00;;;;;;;;;;5088695;28;20053;-65
2022/07/04 06:18:07;;;;;;;0.00;0.00;;;;;;;;;;5085260;28;20048;-62
2022/07/04 06:20:33;;;;;;;0.00;0.00;;;;;;;;;;5080692;28;20122;-61
2022/07/04 06:22:59;;;;;;;0.00;0.00;;;;;;;;;;5083559;28;20072;-60
2022/07/04 06:25:26;;;;;;;0.00;0.00;;;;;;;;;;5082620;28;20110;-60
2022/07/04 06:27:52;;;;;;;0.00;0.00;;;;;;;;;;5084636;28;20087;-60
2022/07/04 06:30:19;;;;;;;0.00;0.00;;;;;;;;;;5082486;27;20084;-60
2022/07/04 06:32:50;;;;;;;0.00;0.00;;;;;;;;;;5089910;28;20102;-61
2022/07/04 06:38:09;;;;;;;0.00;0.00;;;;;;;;;;5084213;28;20088;-61
2022/07/04 06:40:36;;;;;;;0.00;0.00;;;;;;;;;;5078993;28;20503;-61
2022/07/04 06:43:03;;;;;;;0.00;0.00;;;;;;;;;;5077814;28;20060;-61
2022/07/04 06:45:29;;;;;;;0.00;0.00;;;;;;;;;;5093164;28;20263;-62
2022/07/04 06:47:57;;;;;;;0.52;0.52;;;;;;;;;;5101708;27;20136;-62
2022/07/04 06:50:23;;;;;;;0.30;0.10;;;;;;;;;;5097197;28;20082;-62
2022/07/04 06:53:06;;;;;;;0.00;0.00;;;;;;;;;;5088676;28;20503;-63
2022/07/04 06:55:40;;;;;;;0.00;0.00;;;;;;;;;;5100984;28;20093;-61
2022/07/04 06:58:07;;;;;;;0.00;0.00;;;;;;;;;;5095497;27;20105;-60
2022/07/04 07:00:34;;;;;;;0.00;0.00;;;;;;;;;;5084096;28;20601;-60
2022/07/04 07:03:00;;;;;;;0.00;0.00;;;;;;;;;;5092058;28;20099;-61
2022/07/04 07:05:27;;;;;;;0.00;0.00;;;;;;;;;;5083814;28;20557;-60
2022/07/04 07:08:13;;;;;;;0.00;0.00;;;;;;;;;;5089586;28;20141;-60
2022/07/04 07:10:40;;;;;;;0.00;0.00;;;;;;;;;;5077471;28;20130;-60
2022/07/04 07:13:06;;;;;;;0.00;0.00;;;;;;;;;;5086659;28;20089;-62
2022/07/04 07:15:35;;;;;;;0.00;0.00;;;;;;;;;;5085943;28;20235;-61
2022/07/04 07:18:02;;;;;;;0.00;0.00;;;;;;;;;;5079545;27;20056;-61
2022/07/04 07:20:28;;;;;;;0.00;0.00;;;;;;;;;;5088504;28;20229;-61
2022/07/04 07:22:55;;;;;;;0.00;0.00;;;;;;;;;;5083329;28;20083;-61
2022/07/04 07:25:21;;;;;;;0.00;0.00;;;;;;;;;;5090304;28;20092;-61
2022/07/04 07:27:47;;;;;;;0.00;0.00;;;;;;;;;;5083986;28;20115;-63
2022/07/04 07:30:14;;;;;;;0.00;0.00;;;;;;;;;;5078177;28;20087;-64
2022/07/04 07:32:40;;;;;;;0.00;0.00;;;;;;;;;;5079524;27;20646;-63
2022/07/04 07:35:07;;;;;;;0.00;0.00;;;;;;;;;;5090064;28;20147;-63
2022/07/04 07:37:33;;;;;;;0.00;0.00;;;;;;;;;;5079121;28;20130;-63
2022/07/04 07:40:00;;;;;;;0.00;0.00;;;;;;;;;;5091924;28;20102;-63
2022/07/04 07:42:27;;;;;;;0.00;0.00;;;;;;;;;;5085913;28;20544;-63
2022/07/04 07:44:53;;;;;;;0.00;0.00;;;;;;;;;;5090494;28;20583;-63
2022/07/04 07:47:19;;;;;;;0.00;0.00;;;;;;;;;;5089501;28;20079;-63
2022/07/04 07:49:47;;;;;;;0.00;0.00;;;;;;;;;;5094499;28;20102;-63
2022/07/04 07:52:15;;;;;;;0.00;0.00;;;;;;;;;;5098782;27;20048;-63
2022/07/04 07:54:41;;;;;;;0.00;0.00;;;;;;;;;;5087078;27;20110;-63
2022/07/04 07:57:24;;;;;;;0.00;0.00;;;;;;;;;;5089333;28;20056;-63
2022/07/04 07:59:51;;;;;;;0.00;0.00;;;;;;;;;;5094529;28;20080;-63
2022/07/04 08:02:18;;;;;;;0.00;0.00;;;;;;;;;;5088462;28;20084;-63
2022/07/04 08:04:44;;;;;;;0.00;0.00;;;;;;;;;;5088985;27;20138;-63
2022/07/04 08:07:14;;;;;;;0.00;0.00;;;;;;;;;;5086484;28;20498;-63
2022/07/04 08:09:49;;;;;;;;;;;;;;;;;;5091000;28;20106;-63
2022/07/04 08:12:15;;;;;;;0.00;0.00;;;;;;;;;;5087205;28;43594;-63
2022/07/04 08:14:41;;;;;;;0.00;0.00;;;;;;;;;;5089688;28;20106;-63
2022/07/04 08:17:10;;;;;;;0.00;0.00;;;;;;;;;;5088310;28;20056;-63
2022/07/04 08:19:37;;;;;;;0.00;0.00;;;;;;;;;;5091718;28;20079;-60
2022/07/04 08:22:03;;;;;;;0.00;0.00;;;;;;;;;;5085024;28;20082;-59
2022/07/04 08:24:40;;;;;;;0.00;0.00;;;;;;;;;;5085447;28;20067;-60
2022/07/04 08:27:07;;;;;;;0.00;0.00;;;;;;;;;;5086745;28;20106;-60
2022/07/04 08:29:34;;;;;;;0.00;0.00;;;;;;;;;;5089692;28;20519;-64
2022/07/04 08:32:01;;;;;;;0.00;0.00;;;;;;;;;;5091399;27;20056;-64
2022/07/04 08:34:27;;;;;;;0.00;0.00;;;;;;;;;;5088284;28;20106;-64
2022/07/04 08:36:54;;;;;;;0.00;0.00;;;;;;;;;;5090870;28;20048;-64
2022/07/04 08:39:20;;;;;;;0.00;0.00;;;;;;;;;;5090850;28;20540;-64
2022/07/04 08:41:48;;;;;;;0.00;0.00;;;;;;;;;;5082729;28;20696;-64
2022/07/04 08:44:14;;;;;;;;;;;;;;;;;;5101481;27;20049;-64
2022/07/04 08:46:41;;;;;;;0.00;0.00;;;;;;;;;;5089425;28;45694;-64
2022/07/04 08:49:11;;;;;;;0.00;0.00;;;;;;;;;;5099455;28;20569;-64
2022/07/04 08:51:37;;;;;;;0.00;0.00;;;;;;;;;;5099992;28;20505;-64
2022/07/04 08:58:25;;;;;;;0.00;0.00;;;;;;;;;;5101575;27;20130;-65
2022/07/04 08:59:37;;;;;;;0.00;0.00;;;;;;;;;;5091466;28;20060;-65
2022/07/04 09:02:04;;;;;;;0.00;0.00;;;;;;;;;;5094526;27;20487;-65
2022/07/04 09:04:30;;;;;;;0.00;0.00;;;;;;;;;;5091445;28;20056;-65
2022/07/04 09:06:57;;;;;;;0.00;0.00;;;;;;;;;;5090338;28;20053;-64
2022/07/04 09:09:24;;;;;;;0.00;0.00;;;;;;;;;;5088691;28;20091;-64
2022/07/04 09:11:51;;;;;;;0.00;0.00;;;;;;;;;;5091471;28;20543;-64
2022/07/04 09:14:17;;;;;;;0.00;0.00;;;;;;;;;;5088956;28;20461;-65
2022/07/04 09:16:44;;;;;;;0.00;0.00;;;;;;;;;;5086690;28;20589;-64
2022/07/04 09:19:21;;;;;;;0.00;0.00;;;;;;;;;;5086467;28;20102;-64
2022/07/04 09:21:48;;;;;;;0.00;0.00;;;;;;;;;;5090737;28;20055;-64
2022/07/04 09:24:14;;;;;;;0.00;0.00;;;;;;;;;;5092871;28;20084;-64
2022/07/04 09:26:44;;;;;;;0.00;0.00;;;;;;;;;;5094028;28;20627;-63
2022/07/04 09:29:11;;;;;;;0.00;0.00;;;;;;;;;;5086193;28;20080;-64
2022/07/04 09:31:37;;;;;;;0.00;0.00;;;;;;;;;;5092683;28;20419;-64
2022/07/04 09:34:05;;;;;;;0.00;0.00;;;;;;;;;;5082119;27;20051;-63
2022/07/04 09:36:32;;;;;;;0.00;0.00;;;;;;;;;;5090226;28;20118;-64
2022/07/04 09:39:15;;;;;;;0.00;0.00;;;;;;;;;;5084125;28;20049;-65
2022/07/04 09:41:52;;;;;;;0.00;0.00;;;;;;;;;;5092451;28;20092;-68
2022/07/04 09:44:18;;;;;;;0.00;0.00;;;;;;;;;;5082596;28;20052;-66
2022/07/04 09:46:45;;;;;;;0.00;0.00;;;;;;;;;;5089662;28;20041;-65
2022/07/04 09:49:11;;;;;;;0.00;0.00;;;;;;;;;;5098852;28;20056;-68
2022/07/04 09:51:37;;;;;;;0.00;0.00;;;;;;;;;;5100519;28;20090;-67
2022/07/04 09:54:25;;;;;;;0.00;0.00;;;;;;;;;;5101474;27;20056;-67
2022/07/04 09:56:52;;;;;;;0.00;0.00;;;;;;;;;;5082941;28;20052;-67
2022/07/04 09:59:19;;;;;;;0.00;0.00;;;;;;;;;;5094546;28;20091;-67
2022/07/04 10:01:46;;;;;;;0.00;0.00;;;;;;;;;;5094800;28;20092;-67
2022/07/04 10:04:13;;;;;;;0.10;0.10;;;;;;;;;;5091638;28;20097;-67
2022/07/04 10:06:43;;;;;;;0.00;0.00;;;;;;;;;;5080790;28;20584;-67
2022/07/04 10:09:11;;;;;;;0.00;0.00;;;;;;;;;;5091016;28;20588;-67
2022/07/04 10:11:38;;;;;;;0.00;0.00;;;;;;;;;;5092663;28;20407;-67
2022/07/04 10:14:08;;;;;;;0.00;0.00;;;;;;;;;;5093518;27;20525;-67
2022/07/04 10:16:35;;;;;;;0.00;0.00;;;;;;;;;;5090391;28;20110;-67
2022/07/04 10:19:03;;;;;;;0.00;0.00;;;;;;;;;;5098219;28;20598;-67
2022/07/04 10:21:29;;;;;;;0.00;0.00;;;;;;;;;;5093871;28;20924;-67
2022/07/04 10:23:56;;;;;;;0.00;0.00;;;;;;;;;;5099443;27;20055;-67
2022/07/04 10:26:23;;;;;;;0.00;0.00;;;;;;;;;;5090083;27;20086;-67
2022/07/04 10:28:51;;;;;;;0.00;0.00;;;;;;;;;;5087379;28;20084;-65
2022/07/04 10:31:21;;;;;;;0.00;0.00;;;;;;;;;;5092053;28;20537;-66
2022/07/04 10:33:48;;;;;;;0.00;0.00;;;;;;;;;;5085602;28;20052;-65
2022/07/04 10:36:17;;;;;;;0.00;0.00;;;;;;;;;;5082455;28;20088;-64
2022/07/04 10:38:47;;;;;;;0.00;0.00;;;;;;;;;;5083522;28;20138;-65
2022/07/04 10:41:14;;;;;;;0.00;0.00;;;;;;;;;;5086788;28;20052;-64
2022/07/04 10:43:50;;;;;;;0.00;0.00;;;;;;;;;;5088152;28;20053;-65
2022/07/04 10:46:17;;;;;;;0.00;0.00;;;;;;;;;;5082101;28;20548;-63
2022/07/04 10:48:53;;;;;;;0.00;0.00;;;;;;;;;;5090639;28;20057;-63
2022/07/04 10:51:39;;;;;;;0.00;0.00;;;;;;;;;;5093325;28;20141;-64
2022/07/04 10:54:07;;;;;;;0.05;0.05;;;;;;;;;;5088928;28;20052;-62
2022/07/04 10:56:34;;;;;;;;;;;;;;;;;;5090841;28;20106;-64
2022/07/04 10:59:03;;;;;;;0.00;0.00;;;;;;;;;;5090017;27;44790;-63
2022/07/04 11:01:29;;;;;;;0.05;0.05;;;;;;;;;;5091633;28;20129;-63
2022/07/04 11:03:55;;;;;;;0.00;0.00;;;;;;;;;;5090935;27;20102;-62
2022/07/04 11:06:35;;;;;;;0.00;0.00;;;;;;;;;;5081015;28;20057;-63
2022/07/04 11:09:10;;;;;;;0.00;0.00;;;;;;;;;;5076441;28;20057;-62
2022/07/04 11:11:49;;;;;;;0.00;0.00;;;;;;;;;;5093299;28;20049;-62
2022/07/04 11:14:35;;;;;;;0.00;0.00;;;;;;;;;;5085635;28;20052;-62
2022/07/04 11:17:03;;;;;;;0.00;0.00;;;;;;;;;;5098494;28;20041;-62
2022/07/04 11:19:29;;;;;;;0.00;0.00;;;;;;;;;;5094136;28;20072;-63
2022/07/04 11:21:56;;;;;;;0.00;0.00;;;;;;;;;;5100472;27;20083;-63
2022/07/04 11:24:23;;;;;;;0.00;0.00;;;;;;;;;;5091370;27;20118;-63
2022/07/04 11:26:50;;;;;;;0.00;0.00;;;;;;;;;;5077359;28;20601;-62
2022/07/04 11:29:16;;;;;;;0.00;0.00;;;;;;;;;;5087600;28;20597;-63
2022/07/04 11:31:44;;;;;;;0.00;0.00;;;;;;;;;;5083983;28;20106;-62
2022/07/04 11:34:11;;;;;;;0.00;0.00;;;;;;;;;;5087571;28;21551;-63
2022/07/04 11:36:38;;;;;;;0.00;0.00;;;;;;;;;;5089326;28;20052;-62
2022/07/04 11:39:06;;;;;;;0.00;0.00;;;;;;;;;;5087565;28;20053;-62
2022/07/04 11:47:09;;;;;;;0.00;0.00;;;;;;;;;;5084689;28;20903;-63
2022/07/04 11:49:57;;;;;;;0.10;0.10;;;;;;;;;;5098713;28;20539;-63
2022/07/04 11:52:25;;;;;;;0.28;0.28;;;;;;;;;;5098772;28;20048;-63
2022/07/04 11:55:11;;;;;;;;;;;;;;;;;;5093107;28;20063;-63
2022/07/04 11:57:39;;;;;;;0.00;0.00;;;;;;;;;;5094085;28;43993;-63
2022/07/04 12:00:09;;;;;;;0.00;0.00;;;;;;;;;;5093289;27;20109;-63
2022/07/04 12:02:43;;;;;;;0.00;0.00;;;;;;;;;;5090899;28;21649;-63
2022/07/04 12:05:10;;;;;;;0.00;0.00;;;;;;;;;;5088554;28;20053;-63
2022/07/04 12:07:37;;;;;;;0.00;0.00;;;;;;;;;;5088316;28;20507;-63
2022/07/04 12:10:14;;;;;;;0.00;0.00;;;;;;;;;;5080857;28;20090;-63
2022/07/04 12:12:52;;;;;;;0.00;0.00;;;;;;;;;;5090467;28;20079;-63
2022/07/04 12:15:18;;;;;;;0.00;0.00;;;;;;;;;;5084698;28;20341;-63
2022/07/04 12:17:44;;;;;;;0.00;0.00;;;;;;;;;;5090598;28;20056;-63
2022/07/04 12:20:12;;;;;;;0.00;0.00;;;;;;;;;;5088590;27;20966;-63
2022/07/04 12:22:39;;;;;;;;;;;;;;;;;;5090441;28;20092;-63
2022/07/04 12:25:06;;;;;;;0.00;0.00;;;;;;;;;;5088798;28;45519;-63
2022/07/04 12:27:33;;;;;;;0.00;0.00;;;;;;;;;;5095320;28;20110;-64
2022/07/04 12:30:00;;;;;;;0.00;0.00;;;;;;;;;;5086302;27;20063;-65
2022/07/04 12:32:46;;;;;;;0.00;0.00;;;;;;;;;;5084762;28;20549;-64
2022/07/04 12:35:31;;;;;;;0.00;0.00;;;;;;;;;;5085786;28;20052;-61
2022/07/04 12:38:02;;;;;;;0.00;0.00;;;;;;;;;;5084890;28;20048;-62
2022/07/04 12:40:28;;;;;;;0.00;0.00;;;;;;;;;;5081278;28;20052;-61
2022/07/04 12:42:58;;;;;;;0.00;0.00;;;;;;;;;;5084437;28;20980;-63
2022/07/04 12:45:25;;;;;;;0.00;0.00;;;;;;;;;;5086793;28;20500;-61
2022/07/04 12:47:52;;;;;;;0.00;0.00;;;;;;;;;;5086880;28;20109;-61
2022/07/04 12:50:28;;;;;;;0.00;0.00;;;;;;;;;;5083489;28;20059;-61
2022/07/04 12:52:54;;;;;;;0.00;0.00;;;;;;;;;;5089493;28;20057;-61
2022/07/04 12:55:28;;;;;;;0.00;0.00;;;;;;;;;;5081042;28;20060;-61
2022/07/04 12:57:54;;;;;;;0.00;0.00;;;;;;;;;;5091723;27;20592;-61
2022/07/04 13:00:20;;;;;;;0.00;0.00;;;;;;;;;;5089283;28;20502;-60
2022/07/04 13:03:03;;;;;;;0.00;0.00;;;;;;;;;;5087968;28;20598;-65
2022/07/04 13:05:30;;;;;;;0.00;0.00;;;;;;;;;;5082005;28;20570;-60
2022/07/04 13:07:56;;;;;;;0.00;0.00;;;;;;;;;;5094116;27;20391;-60
2022/07/04 13:10:22;;;;;;;0.00;0.00;;;;;;;;;;5088650;28;20076;-60
2022/07/04 13:12:49;;;;;;;0.00;0.00;;;;;;;;;;5085676;28;20545;-60
2022/07/04 13:15:15;;;;;;;0.00;0.00;;;;;;;;;;5085559;28;20095;-60
2022/07/04 13:17:42;;;;;;;0.00;0.00;;;;;;;;;;5095528;28;20111;-64
2022/07/04 13:20:09;;;;;;;0.00;0.00;;;;;;;;;;5089310;28;20102;-64
2022/07/04 13:22:35;;;;;;;0.00;0.00;;;;;;;;;;5093678;28;20217;-62
2022/07/04 13:25:03;;;;;;;0.00;0.00;;;;;;;;;;5089782;28;20107;-62
2022/07/04 13:27:29;;;;;;;0.00;0.00;;;;;;;;;;5093138;28;20080;-61
2022/07/04 13:29:56;;;;;;;0.00;0.00;;;;;;;;;;5089004;27;20506;-63
2022/07/04 13:32:22;;;;;;;0.00;0.00;;;;;;;;;;5089303;28;20080;-60
2022/07/04 13:34:50;;;;;;;0.00;0.00;;;;;;;;;;5090075;28;20064;-60
2022/07/04 13:37:18;;;;;;;0.00;0.00;;;;;;;;;;5089130;28;20114;-60
2022/07/04 13:39:44;;;;;;;0.00;0.00;;;;;;;;;;5093153;28;20053;-60
2022/07/04 13:45:14;;;;;;;0.00;0.00;;;;;;;;;;5087989;28;20056;-59
2022/07/04 13:47:41;;;;;;;0.00;0.00;;;;;;;;;;5101479;28;20087;-60
2022/07/04 13:50:08;;;;;;;0.00;0.00;;;;;;;;;;5102444;27;20155;-60
2022/07/04 13:52:34;;;;;;;0.00;0.00;;;;;;;;;;5096006;27;20106;-59
2022/07/04 13:55:00;;;;;;;0.00;0.00;;;;;;;;;;5093675;28;20051;-59
2022/07/04 13:57:27;;;;;;;0.00;0.00;;;;;;;;;;5088648;28;20102;-60
2022/07/04 13:59:53;;;;;;;0.00;0.00;;;;;;;;;;5088674;28;20079;-60
2022/07/04 14:02:19;;;;;;;0.00;0.00;;;;;;;;;;5076557;28;20056;-60
2022/07/04 14:04:46;;;;;;;0.00;0.00;;;;;;;;;;5081097;28;20075;-60
2022/07/04 14:07:12;;;;;;;0.00;0.00;;;;;;;;;;5085610;28;20539;-59
2022/07/04 14:09:44;;;;;;;0.00;0.00;;;;;;;;;;5091332;28;20556;-60
2022/07/04 14:12:11;;;;;;;0.00;0.00;;;;;;;;;;5090303;28;20106;-60
2022/07/04 14:14:37;;;;;;;0.00;0.00;;;;;;;;;;5094830;28;20080;-60
2022/07/04 14:17:03;;;;;;;0.00;0.00;;;;;;;;;;5091273;28;20053;-60
2022/07/04 14:19:50;;;;;;;0.00;0.00;;;;;;;;;;5094389;28;20498;-60
2022/07/04 14:22:16;;;;;;;0.00;0.00;;;;;;;;;;5096792;27;20894;-61
2022/07/04 14:24:42;;;;;;;0.10;0.10;;;;;;;;;;5091228;28;20052;-61
2022/07/04 14:27:09;;;;;;;0.00;0.00;;;;;;;;;;5091874;28;20072;-61
2022/07/04 14:29:35;;;;;;;0.00;0.00;;;;;;;;;;5091726;28;20092;-60
2022/07/04 14:32:08;;;;;;;0.10;0.10;;;;;;;;;;5089317;28;20055;-60
2022/07/04 14:34:34;;;;;;;0.00;0.00;;;;;;;;;;5085219;28;20145;-60
2022/07/04 14:37:01;;;;;;;0.00;0.00;;;;;;;;;;5081113;28;20166;-61
2022/07/04 14:39:27;;;;;;;0.00;0.00;;;;;;;;;;5090263;28;20118;-58
2022/07/04 14:41:53;;;;;;;0.00;0.00;;;;;;;;;;5088414;27;20101;-61
2022/07/04 14:44:20;;;;;;;0.00;0.00;;;;;;;;;;5082871;28;20088;-61
2022/07/04 14:46:46;;;;;;;0.00;0.00;;;;;;;;;;5095492;28;20154;-60
2022/07/04 14:49:13;;;;;;;0.10;0.10;;;;;;;;;;5090844;28;20053;-61
2022/07/04 14:51:39;;;;;;;0.00;0.00;;;;;;;;;;5094175;28;20049;-60
2022/07/04 14:54:07;;;;;;;0.00;0.00;;;;;;;;;;5091506;28;20052;-64
2022/07/04 14:56:33;;;;;;;0.00;0.00;;;;;;;;;;5086439;28;20087;-60
2022/07/04 14:59:00;;;;;;;0.10;0.10;;;;;;;;;;5089363;28;20049;-60
2022/07/04 15:01:26;;;;;;;0.05;0.05;;;;;;;;;;5089004;28;20087;-60
2022/07/04 15:03:54;;;;;;;0.00;0.00;;;;;;;;;;5087826;28;20056;-60
2022/07/04 15:06:20;;;;;;;0.10;0.10;;;;;;;;;;5089936;28;20056;-59
2022/07/04 15:08:47;;;;;;;0.10;0.10;;;;;;;;;;5091103;28;20176;-59